sensor_id;sensor_type;location;lat;lon;timestamp;pressure;altitude;pressure_sealevel;temperature;humidity
55456;BME280;63021;52.836;6.376;2023-01-28T00:01:06;103128.59;;;2.33;72.18
55456;BME280;63021;52.836;6.376;2023-01-28T00:03:32;103126.91;;;2.32;72.91
55456;BME280;63021;52.836;6.376;2023-01-28T00:06:02;103132.13;;;2.33;72.62
55456;BME280;63021;52.836;6.376;2023-01-28T00:08:28;103143.47;;;2.34;72.37
55456;BME280;63021;52.836;6.376;2023-01-28T00:10:53;103139.19;;;2.30;72.93
55456;BME280;63021;52.836;6.376;2023-01-28T00:13:19;103146.19;;;2.31;72.82
55456;BME280;63021;52.836;6.376;2023-01-28T00:15:44;103146.34;;;2.24;73.35
55456;BME280;63021;52.836;6.376;2023-01-28T00:18:09;103147.16;;;2.27;72.69
55456;BME280;63021;52.836;6.376;2023-01-28T00:20:40;103128.19;;;2.14;72.63
55456;BME280;63021;52.836;6.376;2023-01-28T00:23:06;103123.84;;;2.11;72.19
55456;BME280;63021;52.836;6.376;2023-01-28T00:25:31;103142.88;;;2.22;73.18
55456;BME280;63021;52.836;6.376;2023-01-28T00:27:56;103144.66;;;2.22;72.36
55456;BME280;63021;52.836;6.376;2023-01-28T00:30:22;103131.66;;;2.16;72.66
55456;BME280;63021;52.836;6.376;2023-01-28T00:32:47;103138.56;;;2.18;72.32
55456;BME280;63021;52.836;6.376;2023-01-28T00:35:13;103123.06;;;2.07;71.67
55456;BME280;63021;52.836;6.376;2023-01-28T00:37:39;103146.53;;;2.15;72.14
55456;BME280;63021;52.836;6.376;2023-01-28T00:40:05;103143.06;;;2.15;71.80
55456;BME280;63021;52.836;6.376;2023-01-28T00:42:30;103138.78;;;2.11;72.20
55456;BME280;63021;52.836;6.376;2023-01-28T00:44:56;103134.34;;;2.13;72.44
55456;BME280;63021;52.836;6.376;2023-01-28T00:47:22;103127.44;;;2.08;72.43
55456;BME280;63021;52.836;6.376;2023-01-28T00:49:47;103141.34;;;2.12;72.57
55456;BME280;63021;52.836;6.376;2023-01-28T00:52:12;103130.97;;;2.07;72.42
55456;BME280;63021;52.836;6.376;2023-01-28T00:54:38;103135.41;;;2.05;71.71
55456;BME280;63021;52.836;6.376;2023-01-28T00:57:11;103125.91;;;2.00;72.31
55456;BME280;63021;52.836;6.376;2023-01-28T01:02:31;103131.38;;;1.89;71.93
55456;BME280;63021;52.836;6.376;2023-01-28T01:04:57;103104.47;;;1.78;72.27
55456;BME280;63021;52.836;6.376;2023-01-28T01:07:24;103140.97;;;1.92;72.27
55456;BME280;63021;52.836;6.376;2023-01-28T01:09:58;103142.69;;;1.93;71.76
55456;BME280;63021;52.836;6.376;2023-01-28T01:12:24;103134.88;;;1.88;72.57
55456;BME280;63021;52.836;6.376;2023-01-28T01:14:49;103120.16;;;1.81;72.80
55456;BME280;63021;52.836;6.376;2023-01-28T01:17:15;103134.81;;;1.91;71.98
55456;BME280;63021;52.836;6.376;2023-01-28T01:19:40;103138.34;;;1.92;72.23
55456;BME280;63021;52.836;6.376;2023-01-28T01:22:06;103145.31;;;1.91;71.74
55456;BME280;63021;52.836;6.376;2023-01-28T01:24:31;103129.75;;;1.83;71.84
55456;BME280;63021;52.836;6.376;2023-01-28T01:26:58;103138.44;;;1.87;71.95
55456;BME280;63021;52.836;6.376;2023-01-28T01:29:24;103140.31;;;1.80;71.99
55456;BME280;63021;52.836;6.376;2023-01-28T01:31:49;103149.03;;;1.82;71.88
55456;BME280;63021;52.836;6.376;2023-01-28T01:34:14;103144.63;;;1.84;71.75
55456;BME280;63021;52.836;6.376;2023-01-28T01:36:40;103148.97;;;1.84;71.38
55456;BME280;63021;52.836;6.376;2023-01-28T01:39:11;103146.34;;;1.85;71.92
55456;BME280;63021;52.836;6.376;2023-01-28T01:41:37;103150.75;;;1.83;71.76
55456;BME280;63021;52.836;6.376;2023-01-28T01:44:05;103156.84;;;1.85;71.68
55456;BME280;63021;52.836;6.376;2023-01-28T01:46:48;103152.53;;;1.83;71.64
55456;BME280;63021;52.836;6.376;2023-01-28T01:49:20;103148.13;;;1.83;72.32
55456;BME280;63021;52.836;6.376;2023-01-28T01:52:10;103157.75;;;1.84;72.44
55456;BME280;63021;52.836;6.376;2023-01-28T01:54:36;103156.78;;;1.88;71.76
55456;BME280;63021;52.836;6.376;2023-01-28T01:57:04;103157.59;;;1.90;72.02
55456;BME280;63021;52.836;6.376;2023-01-28T01:59:32;103159.34;;;1.92;72.90
55456;BME280;63021;52.836;6.376;2023-01-28T02:02:04;103147.06;;;1.92;72.17
55456;BME280;63021;52.836;6.376;2023-01-28T02:04:35;103156.72;;;1.92;72.25
55456;BME280;63021;52.836;6.376;2023-01-28T02:07:03;103155.81;;;1.93;72.64
55456;BME280;63021;52.836;6.376;2023-01-28T02:09:33;103150.56;;;1.91;72.80
55456;BME280;63021;52.836;6.376;2023-01-28T02:14:36;103159.34;;;1.92;72.35
55456;BME280;63021;52.836;6.376;2023-01-28T02:17:03;103151.47;;;1.92;72.01
55456;BME280;63021;52.836;6.376;2023-01-28T02:19:36;103164.53;;;1.95;72.61
55456;BME280;63021;52.836;6.376;2023-01-28T02:28:13;103164.63;;;1.90;72.50
55456;BME280;63021;52.836;6.376;2023-01-28T02:30:51;103165.59;;;1.86;72.32
55456;BME280;63021;52.836;6.376;2023-01-28T02:33:28;103177.69;;;1.93;73.18
55456;BME280;63021;52.836;6.376;2023-01-28T02:36:01;103179.47;;;1.91;72.62
55456;BME280;63021;52.836;6.376;2023-01-28T02:38:38;103169.84;;;1.92;72.02
55456;BME280;63021;52.836;6.376;2023-01-28T02:41:12;103156.78;;;1.88;72.11
55456;BME280;63021;52.836;6.376;2023-01-28T02:43:44;103148.97;;;1.85;72.21
55456;BME280;63021;52.836;6.376;2023-01-28T02:49:38;103150.69;;;1.86;71.96
55456;BME280;63021;52.836;6.376;2023-01-28T02:57:28;103155.94;;;1.86;72.05
55456;BME280;63021;52.836;6.376;2023-01-28T03:02:50;103160.28;;;1.89;72.58
55456;BME280;63021;52.836;6.376;2023-01-28T03:05:28;103156.78;;;1.88;72.61
55456;BME280;63021;52.836;6.376;2023-01-28T03:07:56;103158.53;;;1.88;73.53
55456;BME280;63021;52.836;6.376;2023-01-28T03:10:24;103161.13;;;1.89;73.36
55456;BME280;63021;52.836;6.376;2023-01-28T03:12:53;103155.94;;;1.86;73.27
55456;BME280;63021;52.836;6.376;2023-01-28T03:15:45;103158.50;;;1.89;73.28
55456;BME280;63021;52.836;6.376;2023-01-28T03:18:44;103160.31;;;1.87;73.56
55456;BME280;63021;52.836;6.376;2023-01-28T03:21:39;103161.16;;;1.88;73.03
55456;BME280;63021;52.836;6.376;2023-01-28T03:24:29;103162.94;;;1.87;73.94
55456;BME280;63021;52.836;6.376;2023-01-28T03:27:18;103163.81;;;1.86;73.41
55456;BME280;63021;52.836;6.376;2023-01-28T03:30:11;103156.00;;;1.83;72.90
55456;BME280;63021;52.836;6.376;2023-01-28T03:32:57;103163.84;;;1.85;73.52
55456;BME280;63021;52.836;6.376;2023-01-28T03:35:42;103156.00;;;1.83;73.13
55456;BME280;63021;52.836;6.376;2023-01-28T03:38:27;103161.25;;;1.83;73.70
55456;BME280;63021;52.836;6.376;2023-01-28T03:41:00;103154.28;;;1.82;73.80
55456;BME280;63021;52.836;6.376;2023-01-28T03:43:28;103148.16;;;1.82;73.66
55456;BME280;63021;52.836;6.376;2023-01-28T03:45:53;103146.44;;;1.81;73.29
55456;BME280;63021;52.836;6.376;2023-01-28T03:48:24;103151.69;;;1.81;74.39
55456;BME280;63021;52.836;6.376;2023-01-28T03:50:50;103146.47;;;1.79;73.10
55456;BME280;63021;52.836;6.376;2023-01-28T03:53:17;103149.91;;;1.83;73.51
55456;BME280;63021;52.836;6.376;2023-01-28T03:55:44;103158.66;;;1.82;74.20
55456;BME280;63021;52.836;6.376;2023-01-28T03:58:10;103151.75;;;1.78;73.75
55456;BME280;63021;52.836;6.376;2023-01-28T04:00:36;103165.66;;;1.83;73.63
55456;BME280;63021;52.836;6.376;2023-01-28T04:03:09;103161.34;;;1.80;73.15
55456;BME280;63021;52.836;6.376;2023-01-28T04:05:58;103174.47;;;1.80;73.68
55456;BME280;63021;52.836;6.376;2023-01-28T04:08:23;103180.56;;;1.81;73.63
55456;BME280;63021;52.836;6.376;2023-01-28T04:10:49;103167.56;;;1.75;73.90
55456;BME280;63021;52.836;6.376;2023-01-28T04:13:14;103175.34;;;1.79;73.83
55456;BME280;63021;52.836;6.376;2023-01-28T04:15:41;103181.50;;;1.80;74.10
55456;BME280;63021;52.836;6.376;2023-01-28T04:18:08;103186.75;;;1.80;73.13
55456;BME280;63021;52.836;6.376;2023-01-28T04:20:33;103174.59;;;1.74;73.06
55456;BME280;63021;52.836;6.376;2023-01-28T04:22:59;103179.75;;;1.79;73.34
55456;BME280;63021;52.836;6.376;2023-01-28T04:25:24;103184.16;;;1.78;73.81
55456;BME280;63021;52.836;6.376;2023-01-28T04:27:49;103179.75;;;1.79;73.36
55456;BME280;63021;52.836;6.376;2023-01-28T04:30:15;103165.81;;;1.75;73.38
55456;BME280;63021;52.836;6.376;2023-01-28T04:32:41;103175.44;;;1.76;73.37
55456;BME280;63021;52.836;6.376;2023-01-28T04:35:06;103169.28;;;1.77;73.18
55456;BME280;63021;52.836;6.376;2023-01-28T04:37:32;103153.63;;;1.72;73.05
55456;BME280;63021;52.836;6.376;2023-01-28T04:39:57;103160.47;;;1.80;72.95
55456;BME280;63021;52.836;6.376;2023-01-28T04:42:23;103161.34;;;1.80;72.87
55456;BME280;63021;52.836;6.376;2023-01-28T04:44:48;103140.41;;;1.77;73.40
55456;BME280;63021;52.836;6.376;2023-01-28T04:47:13;103150.88;;;1.79;73.84
55456;BME280;63021;52.836;6.376;2023-01-28T04:49:39;103144.78;;;1.75;73.31
55456;BME280;63021;52.836;6.376;2023-01-28T04:52:04;103143.00;;;1.79;73.66
55456;BME280;63021;52.836;6.376;2023-01-28T04:54:30;103141.28;;;1.76;73.88
55456;BME280;63021;52.836;6.376;2023-01-28T04:56:55;103150.81;;;1.80;73.71
55456;BME280;63021;52.836;6.376;2023-01-28T04:59:20;103149.06;;;1.81;73.77
55456;BME280;63021;52.836;6.376;2023-01-28T05:01:48;103147.31;;;1.81;74.53
55456;BME280;63021;52.836;6.376;2023-01-28T05:04:13;103142.06;;;1.81;73.66
55456;BME280;63021;52.836;6.376;2023-01-28T05:06:38;103129.94;;;1.76;74.30
55456;BME280;63021;52.836;6.376;2023-01-28T05:09:04;103133.44;;;1.75;73.89
55456;BME280;63021;52.836;6.376;2023-01-28T05:11:29;103143.03;;;1.77;73.53
55456;BME280;63021;52.836;6.376;2023-01-28T05:13:55;103152.63;;;1.78;74.18
55456;BME280;63021;52.836;6.376;2023-01-28T05:16:20;103167.41;;;1.82;73.59
55456;BME280;63021;52.836;6.376;2023-01-28T05:18:45;103158.72;;;1.80;73.84
55456;BME280;63021;52.836;6.376;2023-01-28T05:21:16;103166.56;;;1.82;73.58
55456;BME280;63021;52.836;6.376;2023-01-28T05:23:41;103165.69;;;1.81;73.40
55456;BME280;63021;52.836;6.376;2023-01-28T05:26:07;103160.47;;;1.80;74.09
55456;BME280;63021;52.836;6.376;2023-01-28T05:28:32;103157.81;;;1.81;73.62
55456;BME280;63021;52.836;6.376;2023-01-28T05:31:05;103142.13;;;1.78;73.55
55456;BME280;63021;52.836;6.376;2023-01-28T05:33:31;103146.44;;;1.81;73.34
55456;BME280;63021;52.836;6.376;2023-01-28T05:35:57;103131.69;;;1.73;73.82
55456;BME280;63021;52.836;6.376;2023-01-28T05:38:22;103115.97;;;1.72;73.67
55456;BME280;63021;52.836;6.376;2023-01-28T05:40:48;103109.00;;;1.71;73.12
55456;BME280;63021;52.836;6.376;2023-01-28T05:43:13;103116.66;;;1.82;73.65
55456;BME280;63021;52.836;6.376;2023-01-28T05:45:39;103128.84;;;1.84;73.25
55456;BME280;63021;52.836;6.376;2023-01-28T05:48:04;103133.25;;;1.82;73.66
55456;BME280;63021;52.836;6.376;2023-01-28T05:50:30;103127.19;;;1.80;73.46
55456;BME280;63021;52.836;6.376;2023-01-28T05:52:55;103139.41;;;1.83;73.08
55456;BME280;63021;52.836;6.376;2023-01-28T05:55:21;103122.00;;;1.77;73.90
55456;BME280;63021;52.836;6.376;2023-01-28T05:57:47;103133.34;;;1.79;73.30
55456;BME280;63021;52.836;6.376;2023-01-28T06:00:13;103137.72;;;1.79;73.39
55456;BME280;63021;52.836;6.376;2023-01-28T06:02:40;103139.44;;;1.81;73.27
55456;BME280;63021;52.836;6.376;2023-01-28T06:05:05;103136.91;;;1.75;73.88
55456;BME280;63021;52.836;6.376;2023-01-28T06:07:31;103129.00;;;1.77;73.30
55456;BME280;63021;52.836;6.376;2023-01-28T06:09:56;103121.22;;;1.72;73.89
55456;BME280;63021;52.836;6.376;2023-01-28T06:12:22;103122.16;;;1.69;73.70
55456;BME280;63021;52.836;6.376;2023-01-28T06:14:47;103125.50;;;1.78;73.27
55456;BME280;63021;52.836;6.376;2023-01-28T06:17:13;103115.16;;;1.70;72.92
55456;BME280;63021;52.836;6.376;2023-01-28T06:19:38;103116.06;;;1.69;73.23
55456;BME280;63021;52.836;6.376;2023-01-28T06:22:03;103103.03;;;1.64;73.51
55456;BME280;63021;52.836;6.376;2023-01-28T06:24:29;103138.69;;;1.75;73.91
55456;BME280;63021;52.836;6.376;2023-01-28T06:26:54;103125.75;;;1.67;73.89
55456;BME280;63021;52.836;6.376;2023-01-28T06:29:20;103131.75;;;1.72;73.23
55456;BME280;63021;52.836;6.376;2023-01-28T06:31:45;103134.31;;;1.73;74.19
55456;BME280;63021;52.836;6.376;2023-01-28T06:34:10;103150.06;;;1.75;73.42
55456;BME280;63021;52.836;6.376;2023-01-28T06:36:37;103140.50;;;1.71;73.43
55456;BME280;63021;52.836;6.376;2023-01-28T06:39:03;103125.91;;;1.58;73.15
55456;BME280;63021;52.836;6.376;2023-01-28T06:41:29;103149.38;;;1.67;73.69
55456;BME280;63021;52.836;6.376;2023-01-28T06:43:54;103149.41;;;1.65;73.36
55456;BME280;63021;52.836;6.376;2023-01-28T06:46:20;103152.00;;;1.67;73.28
55456;BME280;63021;52.836;6.376;2023-01-28T06:48:45;103127.72;;;1.55;73.47
55456;BME280;63021;52.836;6.376;2023-01-28T06:51:11;103144.06;;;1.70;73.08
55456;BME280;63021;52.836;6.376;2023-01-28T06:53:36;103142.31;;;1.69;73.09
55456;BME280;63021;52.836;6.376;2023-01-28T06:56:02;103148.47;;;1.66;73.71
55456;BME280;63021;52.836;6.376;2023-01-28T06:58:27;103156.28;;;1.69;73.33
55456;BME280;63021;52.836;6.376;2023-01-28T07:00:53;103152.81;;;1.69;73.45
55456;BME280;63021;52.836;6.376;2023-01-28T07:03:18;103145.13;;;1.61;73.95
55456;BME280;63021;52.836;6.376;2023-01-28T07:05:43;103146.88;;;1.59;73.17
55456;BME280;63021;52.836;6.376;2023-01-28T07:08:09;103132.25;;;1.47;73.31
55456;BME280;63021;52.836;6.376;2023-01-28T07:10:34;103158.97;;;1.68;73.18
55456;BME280;63021;52.836;6.376;2023-01-28T07:13:00;103176.47;;;1.67;73.36
55456;BME280;63021;52.836;6.376;2023-01-28T07:15:25;103180.00;;;1.66;73.08
55456;BME280;63021;52.836;6.376;2023-01-28T07:17:51;103181.81;;;1.64;73.40
55456;BME280;63021;52.836;6.376;2023-01-28T07:20:16;103179.28;;;1.60;73.24
55456;BME280;63021;52.836;6.376;2023-01-28T07:22:42;103176.56;;;1.64;73.64
55456;BME280;63021;52.836;6.376;2023-01-28T07:25:12;103181.72;;;1.67;73.71
55456;BME280;63021;52.836;6.376;2023-01-28T07:27:37;103186.94;;;1.69;73.39
55456;BME280;63021;52.836;6.376;2023-01-28T07:30:03;103184.31;;;1.69;73.89
55456;BME280;63021;52.836;6.376;2023-01-28T07:32:29;103165.25;;;1.59;74.36
55456;BME280;63021;52.836;6.376;2023-01-28T07:34:54;103191.34;;;1.68;73.30
55456;BME280;63021;52.836;6.376;2023-01-28T07:37:20;103194.91;;;1.66;73.50
55456;BME280;63021;52.836;6.376;2023-01-28T07:39:46;103193.97;;;1.68;73.85
55456;BME280;63021;52.836;6.376;2023-01-28T07:42:11;103194.81;;;1.69;73.89
55456;BME280;63021;52.836;6.376;2023-01-28T07:44:37;103187.91;;;1.65;73.37
55456;BME280;63021;52.836;6.376;2023-01-28T07:47:03;103189.69;;;1.64;74.35
55456;BME280;63021;52.836;6.376;2023-01-28T07:49:29;103168.81;;;1.58;73.62
55456;BME280;63021;52.836;6.376;2023-01-28T07:51:55;103185.22;;;1.68;73.61
55456;BME280;63021;52.836;6.376;2023-01-28T07:54:20;103194.88;;;1.67;73.51
55456;BME280;63021;52.836;6.376;2023-01-28T07:56:46;103180.94;;;1.62;73.46
55456;BME280;63021;52.836;6.376;2023-01-28T07:59:12;103194.03;;;1.65;74.10
55456;BME280;63021;52.836;6.376;2023-01-28T08:01:37;103174.00;;;1.61;73.43
55456;BME280;63021;52.836;6.376;2023-01-28T08:04:03;103159.97;;;1.61;73.51
55456;BME280;63021;52.836;6.376;2023-01-28T08:06:28;103170.41;;;1.64;72.94
55456;BME280;63021;52.836;6.376;2023-01-28T08:08:54;103173.03;;;1.64;73.22
55456;BME280;63021;52.836;6.376;2023-01-28T08:11:19;103168.72;;;1.63;73.45
55456;BME280;63021;52.836;6.376;2023-01-28T08:13:45;103166.16;;;1.60;72.97
55456;BME280;63021;52.836;6.376;2023-01-28T08:16:10;103170.56;;;1.58;73.48
55456;BME280;63021;52.836;6.376;2023-01-28T08:18:36;103172.41;;;1.52;73.60
55456;BME280;63021;52.836;6.376;2023-01-28T08:21:01;103169.06;;;1.44;73.31
55456;BME280;63021;52.836;6.376;2023-01-28T08:23:27;103170.00;;;1.42;73.70
55456;BME280;63021;52.836;6.376;2023-01-28T08:25:53;103185.69;;;1.45;73.38
55456;BME280;63021;52.836;6.376;2023-01-28T08:28:19;103198.81;;;1.45;74.22
55456;BME280;63021;52.836;6.376;2023-01-28T08:30:46;103207.56;;;1.44;74.68
55456;BME280;63021;52.836;6.376;2023-01-28T08:33:16;103212.78;;;1.47;73.53
55456;BME280;63021;52.836;6.376;2023-01-28T08:35:41;103182.31;;;1.36;73.92
55456;BME280;63021;52.836;6.376;2023-01-28T08:38:08;103180.53;;;1.40;73.43
55456;BME280;63021;52.836;6.376;2023-01-28T08:40:35;103213.34;;;1.63;74.25
55456;BME280;63021;52.836;6.376;2023-01-28T08:43:01;103208.81;;;1.69;74.39
55456;BME280;63021;52.836;6.376;2023-01-28T08:45:27;103217.50;;;1.73;73.26
55456;BME280;63021;52.836;6.376;2023-01-28T08:47:55;103214.88;;;1.73;73.80
55456;BME280;63021;52.836;6.376;2023-01-28T08:50:22;103225.91;;;1.90;73.25
55456;BME280;63021;52.836;6.376;2023-01-28T08:52:48;103224.03;;;1.97;73.47
55456;BME280;63021;52.836;6.376;2023-01-28T08:55:15;103217.06;;;1.95;72.68
55456;BME280;63021;52.836;6.376;2023-01-28T08:57:40;103217.66;;;2.07;73.57
55456;BME280;63021;52.836;6.376;2023-01-28T09:00:07;103228.91;;;2.14;73.07
55456;BME280;63021;52.836;6.376;2023-01-28T09:02:35;103224.44;;;2.18;72.94
55456;BME280;63021;52.836;6.376;2023-01-28T09:05:01;103236.59;;;2.23;72.45
55456;BME280;63021;52.836;6.376;2023-01-28T09:07:26;103236.44;;;2.30;72.58
55456;BME280;63021;52.836;6.376;2023-01-28T09:09:52;103241.59;;;2.36;72.26
55456;BME280;63021;52.836;6.376;2023-01-28T09:12:17;103234.47;;;2.39;72.28
55456;BME280;63021;52.836;6.376;2023-01-28T09:14:43;103249.94;;;2.53;71.63
55456;BME280;63021;52.836;6.376;2023-01-28T09:17:08;103254.16;;;2.60;71.47
55456;BME280;63021;52.836;6.376;2023-01-28T09:19:33;103254.00;;;2.67;71.58
55456;BME280;63021;52.836;6.376;2023-01-28T09:21:59;103259.28;;;2.67;71.20
55456;BME280;63021;52.836;6.376;2023-01-28T09:24:24;103251.34;;;2.68;71.03
55456;BME280;63021;52.836;6.376;2023-01-28T09:26:50;103255.69;;;2.71;71.03
55456;BME280;63021;52.836;6.376;2023-01-28T09:29:15;103249.59;;;2.69;70.51
55456;BME280;63021;52.836;6.376;2023-01-28T09:31:41;103258.25;;;2.72;70.81
55456;BME280;63021;52.836;6.376;2023-01-28T09:34:08;103261.75;;;2.74;71.17
55456;BME280;63021;52.836;6.376;2023-01-28T09:36:33;103259.16;;;2.71;71.30
55456;BME280;63021;52.836;6.376;2023-01-28T09:39:00;103263.44;;;2.75;70.93
55456;BME280;63021;52.836;6.376;2023-01-28T09:46:50;103256.53;;;2.71;71.16
55456;BME280;63021;52.836;6.376;2023-01-28T09:49:37;103263.66;;;2.68;70.30
55456;BME280;63021;52.836;6.376;2023-01-28T09:52:11;103252.22;;;2.69;70.63
55456;BME280;63021;52.836;6.376;2023-01-28T09:57:35;103249.56;;;2.70;70.16
55456;BME280;63021;52.836;6.376;2023-01-28T10:00:02;103258.13;;;2.78;69.81
55456;BME280;63021;52.836;6.376;2023-01-28T10:02:46;103253.78;;;2.77;70.41
55456;BME280;63021;52.836;6.376;2023-01-28T10:08:04;103265.00;;;2.84;69.82
55456;BME280;63021;52.836;6.376;2023-01-28T10:10:55;103270.97;;;2.91;69.95
55456;BME280;63021;52.836;6.376;2023-01-28T10:13:47;103269.94;;;2.98;69.50
55456;BME280;63021;52.836;6.376;2023-01-28T10:16:26;103263.69;;;3.02;69.57
55456;BME280;63021;52.836;6.376;2023-01-28T10:19:01;103265.31;;;3.08;69.52
55456;BME280;63021;52.836;6.376;2023-01-28T10:21:36;103266.97;;;3.12;69.54
55456;BME280;63021;52.836;6.376;2023-01-28T10:24:10;103255.47;;;3.15;69.91
55456;BME280;63021;52.836;6.376;2023-01-28T10:26:40;103242.31;;;3.15;69.33
55456;BME280;63021;52.836;6.376;2023-01-28T10:29:27;103244.81;;;3.21;69.99
55456;BME280;63021;52.836;6.376;2023-01-28T10:31:58;103237.75;;;3.21;69.47
55456;BME280;63021;52.836;6.376;2023-01-28T10:34:26;103226.41;;;3.19;69.54
55456;BME280;63021;52.836;6.376;2023-01-28T10:36:52;103227.22;;;3.21;69.04
55456;BME280;63021;52.836;6.376;2023-01-28T10:39:20;103231.59;;;3.22;69.21
55456;BME280;63021;52.836;6.376;2023-01-28T10:41:46;103204.47;;;3.19;70.02
55456;BME280;63021;52.836;6.376;2023-01-28T10:44:27;103193.00;;;3.21;69.21
55456;BME280;63021;52.836;6.376;2023-01-28T10:46:56;103174.81;;;3.14;69.92
55456;BME280;63021;52.836;6.376;2023-01-28T10:49:26;103166.81;;;3.17;69.30
55456;BME280;63021;52.836;6.376;2023-01-28T10:51:53;103178.25;;;3.16;69.48
55456;BME280;63021;52.836;6.376;2023-01-28T10:54:26;103151.88;;;3.17;69.55
55456;BME280;63021;52.836;6.376;2023-01-28T10:56:54;103148.53;;;3.12;69.18
55456;BME280;63021;52.836;6.376;2023-01-28T10:59:28;103149.34;;;3.14;69.25
55456;BME280;63021;52.836;6.376;2023-01-28T11:01:59;103128.28;;;3.14;69.63
55456;BME280;63021;52.836;6.376;2023-01-28T11:04:30;103132.78;;;3.10;69.46
55456;BME280;63021;52.836;6.376;2023-01-28T11:06:59;103130.16;;;3.10;69.03
55456;BME280;63021;52.836;6.376;2023-01-28T11:09:29;103137.91;;;3.15;69.63
55456;BME280;63021;52.836;6.376;2023-01-28T11:11:57;103155.41;;;3.18;69.72
55456;BME280;63021;52.836;6.376;2023-01-28T11:14:25;103151.97;;;3.14;69.96
55456;BME280;63021;52.836;6.376;2023-01-28T11:16:53;103150.94;;;3.20;69.47
55456;BME280;63021;52.836;6.376;2023-01-28T11:19:25;103142.16;;;3.21;69.63
55456;BME280;63021;52.836;6.376;2023-01-28T11:21:55;103169.19;;;3.26;68.76
55456;BME280;63021;52.836;6.376;2023-01-28T11:24:25;103172.75;;;3.25;69.93
55456;BME280;63021;52.836;6.376;2023-01-28T11:26:54;103162.25;;;3.23;69.90
55456;BME280;63021;52.836;6.376;2023-01-28T11:29:30;103158.56;;;3.31;70.10
55456;BME280;63021;52.836;6.376;2023-01-28T11:31:57;103159.22;;;3.37;69.53
55456;BME280;63021;52.836;6.376;2023-01-28T11:34:33;103156.44;;;3.43;70.27
55456;BME280;63021;52.836;6.376;2023-01-28T11:37:09;103149.31;;;3.47;69.45
55456;BME280;63021;52.836;6.376;2023-01-28T11:39:36;103167.34;;;3.61;69.49
55456;BME280;63021;52.836;6.376;2023-01-28T11:42:16;103169.59;;;3.73;69.14
55456;BME280;63021;52.836;6.376;2023-01-28T11:44:42;103172.84;;;3.83;69.17
55456;BME280;63021;52.836;6.376;2023-01-28T11:52:22;103171.16;;;4.10;68.59
55456;BME280;63021;52.836;6.376;2023-01-28T11:57:28;103158.19;;;4.31;68.56
55456;BME280;63021;52.836;6.376;2023-01-28T12:00:08;103152.91;;;4.32;68.74
55456;BME280;63021;52.836;6.376;2023-01-28T12:02:50;103159.75;;;4.37;69.15
55456;BME280;63021;52.836;6.376;2023-01-28T12:11:15;103152.19;;;4.54;68.98
55456;BME280;63021;52.836;6.376;2023-01-28T12:14:16;103138.94;;;4.56;68.16
55456;BME280;63021;52.836;6.376;2023-01-28T12:19:51;103128.72;;;4.72;67.95
55456;BME280;63021;52.836;6.376;2023-01-28T12:22:24;103111.78;;;4.79;68.01
55456;BME280;63021;52.836;6.376;2023-01-28T12:25:20;103103.56;;;4.86;68.11
55456;BME280;63021;52.836;6.376;2023-01-28T12:36:06;103096.91;;;5.01;67.92
55456;BME280;63021;52.836;6.376;2023-01-28T12:38:57;103095.97;;;5.02;67.79
55456;BME280;63021;52.836;6.376;2023-01-28T12:41:40;103085.47;;;5.01;67.42
55456;BME280;63021;52.836;6.376;2023-01-28T12:44:23;103089.06;;;4.98;68.00
55456;BME280;63021;52.836;6.376;2023-01-28T12:46:59;103090.94;;;4.96;67.33
55456;BME280;63021;52.836;6.376;2023-01-28T12:49:36;103091.88;;;4.94;66.89
55456;BME280;63021;52.836;6.376;2023-01-28T12:52:09;103083.34;;;4.87;67.11
55456;BME280;63021;52.836;6.376;2023-01-28T12:54:55;103087.81;;;4.85;66.62
55456;BME280;63021;52.836;6.376;2023-01-28T12:57:24;103095.78;;;4.83;66.58
55456;BME280;63021;52.836;6.376;2023-01-28T12:59:56;103100.16;;;4.84;67.23
55456;BME280;63021;52.836;6.376;2023-01-28T13:02:26;103103.53;;;4.88;67.28
55456;BME280;63021;52.836;6.376;2023-01-28T13:05:15;103103.56;;;4.86;67.16
55456;BME280;63021;52.836;6.376;2023-01-28T13:08:21;103109.63;;;4.90;66.98
55456;BME280;63021;52.836;6.376;2023-01-28T13:10:48;103098.34;;;4.85;67.25
55456;BME280;63021;52.836;6.376;2023-01-28T13:15:48;103083.19;;;4.92;66.68
55456;BME280;63021;52.836;6.376;2023-01-28T13:21:04;103077.19;;;4.86;67.07
55456;BME280;63021;52.836;6.376;2023-01-28T13:25:56;103086.25;;;4.79;66.88
55456;BME280;63021;52.836;6.376;2023-01-28T13:28:33;103080.13;;;4.79;67.43
55456;BME280;63021;52.836;6.376;2023-01-28T13:31:07;103087.91;;;4.82;66.99
55456;BME280;63021;52.836;6.376;2023-01-28T13:33:36;103094.09;;;4.81;67.09
55456;BME280;63021;52.836;6.376;2023-01-28T13:36:17;103083.72;;;4.76;67.03
55456;BME280;63021;52.836;6.376;2023-01-28T13:38:45;103089.03;;;4.75;67.52
55456;BME280;63021;52.836;6.376;2023-01-28T13:41:11;103093.41;;;4.76;66.54
55456;BME280;63021;52.836;6.376;2023-01-28T13:43:39;103083.78;;;4.75;67.43
55456;BME280;63021;52.836;6.376;2023-01-28T13:46:08;103083.00;;;4.71;66.28
55456;BME280;63021;52.836;6.376;2023-01-28T13:48:52;103086.56;;;4.70;66.91
55456;BME280;63021;52.836;6.376;2023-01-28T13:53:56;103088.38;;;4.68;66.74
55456;BME280;63021;52.836;6.376;2023-01-28T13:57:00;103083.06;;;4.69;66.58
55456;BME280;63021;52.836;6.376;2023-01-28T14:05:41;103060.94;;;4.74;67.66
55456;BME280;63021;52.836;6.376;2023-01-28T14:16:23;103074.56;;;4.86;67.18
55456;BME280;63021;52.836;6.376;2023-01-28T14:18:56;103072.81;;;4.85;67.20
55456;BME280;63021;52.836;6.376;2023-01-28T14:21:25;103070.16;;;4.87;67.54
55456;BME280;63021;52.836;6.376;2023-01-28T14:23:54;103071.00;;;4.88;67.67
55456;BME280;63021;52.836;6.376;2023-01-28T14:31:44;103093.78;;;4.90;68.09
55456;BME280;63021;52.836;6.376;2023-01-28T14:34:28;103107.72;;;4.94;68.23
55456;BME280;63021;52.836;6.376;2023-01-28T14:36:57;103106.00;;;4.93;68.03
55456;BME280;63021;52.836;6.376;2023-01-28T14:39:30;103116.47;;;4.96;67.69
55456;BME280;63021;52.836;6.376;2023-01-28T14:42:01;103121.75;;;4.96;67.46